createdAt,value
2022-12-23T00:00:28.895Z,98168.56
2022-12-23T00:02:55.888Z,98142.00
2022-12-23T00:05:22.832Z,98118.59
2022-12-23T00:07:49.591Z,98146.47
2022-12-23T00:10:16.410Z,98138.63
2022-12-23T00:13:02.053Z,98114.81
2022-12-23T00:15:28.866Z,98087.59
2022-12-23T00:17:55.546Z,98094.03
2022-12-23T00:20:22.348Z,98080.81
2022-12-23T00:23:07.370Z,98147.38
2022-12-23T00:25:42.115Z,98101.25
2022-12-23T00:28:17.666Z,98040.38
2022-12-23T00:30:52.415Z,98066.75
2022-12-23T00:33:25.229Z,98088.63
2022-12-23T00:35:53.127Z,98072.53
2022-12-23T00:38:39.631Z,98116.66
2022-12-23T00:41:29.211Z,98112.59
2022-12-23T00:43:56.655Z,98080.50
2022-12-23T00:46:23.432Z,97897.19
2022-12-23T00:49:08.795Z,98091.91
2022-12-23T00:51:35.859Z,98027.63
2022-12-23T00:54:03.569Z,98060.94
2022-12-23T00:56:30.411Z,97954.78
2022-12-23T00:58:57.208Z,98056.44
2022-12-23T01:01:42.778Z,97925.69
2022-12-23T01:04:31.700Z,98023.91
2022-12-23T01:06:58.593Z,97936.91
2022-12-23T01:09:25.629Z,98054.63
2022-12-23T01:11:52.644Z,98029.06
2022-12-23T01:14:19.789Z,98047.19
2022-12-23T01:16:47.141Z,97996.41
2022-12-23T01:19:14.474Z,98042.28
2022-12-23T01:21:41.135Z,97989.06
2022-12-23T01:24:08.840Z,97993.66
2022-12-23T01:26:35.769Z,98025.19
2022-12-23T01:29:03.062Z,98037.19
2022-12-23T01:31:30.345Z,97983.72
2022-12-23T01:33:57.064Z,98011.31
2022-12-23T01:36:24.274Z,97943.25
2022-12-23T01:38:51.167Z,98058.00
2022-12-23T01:41:44.589Z,98044.88
2022-12-23T01:44:49.030Z,98043.22
2022-12-23T01:47:31.701Z,98046.34
2022-12-23T01:50:23.404Z,98045.25
2022-12-23T01:53:03.086Z,98037.75
2022-12-23T01:55:57.132Z,97984.78
2022-12-23T01:58:40.664Z,97982.72
2022-12-23T02:01:28.294Z,97961.97
2022-12-23T02:03:58.796Z,97968.59
2022-12-23T02:06:46.316Z,98022.00
2022-12-23T02:09:22.407Z,97985.19
2022-12-23T02:12:25.856Z,98028.31
2022-12-23T02:15:29.287Z,98019.88
2022-12-23T02:18:17.412Z,98005.31
2022-12-23T02:20:56.126Z,98004.47
2022-12-23T02:23:44.529Z,98019.78
2022-12-23T02:26:46.318Z,98007.13
2022-12-23T02:29:32.203Z,98010.44
2022-12-23T02:32:15.935Z,97972.81
2022-12-23T02:35:13.757Z,97962.63
2022-12-23T02:37:52.383Z,97996.94
2022-12-23T02:40:31.551Z,97998.69
2022-12-23T02:43:31.441Z,97952.78
2022-12-23T02:46:22.634Z,97997.34
2022-12-23T02:49:05.026Z,97972.16
2022-12-23T02:51:37.693Z,97874.13
2022-12-23T02:54:09.333Z,97958.28
2022-12-23T02:56:39.619Z,97972.31
2022-12-23T02:59:20.618Z,97969.09
2022-12-23T03:01:49.648Z,97871.13
2022-12-23T03:04:16.612Z,97928.91
2022-12-23T03:06:49.700Z,97960.34
2022-12-23T03:09:38.255Z,97903.13
2022-12-23T03:12:16.507Z,97986.19
2022-12-23T03:14:55.883Z,97986.88
2022-12-23T03:17:54.949Z,97959.09
2022-12-23T03:21:02.431Z,97961.56
2022-12-23T03:23:35.923Z,97952.56
2022-12-23T03:26:11.660Z,97981.75
2022-12-23T03:29:24.088Z,97972.22
2022-12-23T03:31:53.069Z,97837.94
2022-12-23T03:34:26.443Z,97967.19
2022-12-23T03:36:57.692Z,97928.88
2022-12-23T03:39:32.129Z,97883.56
2022-12-23T03:42:06.140Z,97891.88
2022-12-23T03:44:37.394Z,97893.78
2022-12-23T03:47:45.317Z,97924.69
2022-12-23T03:50:15.686Z,97887.81
2022-12-23T03:52:55.226Z,97896.50
2022-12-23T03:55:36.171Z,97900.63
2022-12-23T03:58:19.764Z,97948.69
2022-12-23T04:01:11.681Z,97951.25
2022-12-23T04:04:05.936Z,97951.16
2022-12-23T04:06:41.018Z,97925.59
2022-12-23T04:09:08.465Z,97869.13
2022-12-23T04:11:36.704Z,97890.72
2022-12-23T04:14:03.621Z,97901.28
2022-12-23T04:16:30.636Z,97852.41
2022-12-23T04:18:57.503Z,97942.56
2022-12-23T04:21:24.367Z,97848.84
2022-12-23T04:23:51.435Z,97875.44
2022-12-23T04:26:18.313Z,97868.75
2022-12-23T04:28:45.103Z,97861.66
2022-12-23T04:31:11.875Z,97856.03
2022-12-23T04:33:38.780Z,97888.47
2022-12-23T04:36:05.954Z,97930.47
2022-12-23T04:38:32.622Z,97858.50
2022-12-23T04:40:59.418Z,97843.13
2022-12-23T04:43:26.210Z,97918.88
2022-12-23T04:45:53.133Z,97853.13
2022-12-23T04:48:19.979Z,97855.69
2022-12-23T04:50:47.518Z,97919.44
2022-12-23T04:53:14.844Z,97916.56
2022-12-23T04:55:41.979Z,97904.69
2022-12-23T04:58:08.733Z,97892.38
2022-12-23T05:00:39.792Z,97899.81
2022-12-23T05:03:07.484Z,97916.97
2022-12-23T05:05:34.599Z,97842.72
2022-12-23T05:08:06.640Z,97916.97
2022-12-23T05:10:33.424Z,97897.25
2022-12-23T05:13:00.666Z,97792.31
2022-12-23T05:15:27.405Z,97866.06
2022-12-23T05:17:54.145Z,97880.09
2022-12-23T05:20:21.032Z,97900.72
2022-12-23T05:22:47.899Z,97912.72
2022-12-23T05:25:14.693Z,97855.69
2022-12-23T05:27:41.480Z,97871.47
2022-12-23T05:30:08.953Z,97910.38
2022-12-23T05:32:36.015Z,97786.97
2022-12-23T05:35:02.844Z,97869.41
2022-12-23T05:37:29.829Z,97912.13
2022-12-23T05:39:56.761Z,97859.16
2022-12-23T05:42:23.631Z,97893.72
2022-12-23T05:44:50.323Z,97867.06
2022-12-23T05:47:17.191Z,97839.75
2022-12-23T05:49:44.100Z,97924.50
2022-12-23T05:52:10.864Z,97816.78
2022-12-23T05:54:37.741Z,97816.59
2022-12-23T05:57:04.473Z,97890.63
2022-12-23T05:59:31.900Z,97905.41
2022-12-23T06:01:59.167Z,97907.06
2022-12-23T06:04:26.415Z,97901.53
2022-12-23T06:06:53.236Z,97917.31
2022-12-23T06:09:20.153Z,97873.75
2022-12-23T06:11:46.984Z,97875.16
2022-12-23T06:14:13.734Z,97911.63
2022-12-23T06:16:40.609Z,97857.16
2022-12-23T06:19:07.748Z,97818.75
2022-12-23T06:21:34.637Z,97914.41
2022-12-23T06:24:01.617Z,97897.63
2022-12-23T06:26:28.509Z,97905.81
2022-12-23T06:28:55.302Z,97855.28
2022-12-23T06:31:22.270Z,97958.03
2022-12-23T06:33:49.055Z,97866.81
2022-12-23T06:36:15.908Z,97854.44
2022-12-23T06:38:42.714Z,97900.25
2022-12-23T06:41:09.605Z,97952.91
2022-12-23T06:43:36.452Z,97955.09
2022-12-23T06:46:03.348Z,97937.78
2022-12-23T06:48:30.130Z,97835.06
2022-12-23T06:50:56.916Z,97963.25
2022-12-23T06:53:23.913Z,97944.19
2022-12-23T06:55:50.819Z,97837.59
2022-12-23T06:58:17.670Z,97941.66
2022-12-23T07:00:44.491Z,97888.66
2022-12-23T07:03:11.356Z,97878.16
2022-12-23T07:05:42.410Z,97922.22
2022-12-23T07:08:09.636Z,97924.22
2022-12-23T07:10:39.079Z,97946.84
2022-12-23T07:13:06.792Z,97874.28
2022-12-23T07:15:33.528Z,97840.41
2022-12-23T07:18:03.168Z,97870.91
2022-12-23T07:20:29.905Z,97911.72
2022-12-23T07:22:58.128Z,97972.28
2022-12-23T07:25:25.336Z,97963.06
2022-12-23T07:27:55.605Z,97983.97
2022-12-23T07:30:23.398Z,97970.16
2022-12-23T07:32:51.039Z,97944.06
2022-12-23T07:35:18.386Z,97965.63
2022-12-23T07:37:45.578Z,97976.38
2022-12-23T07:40:12.625Z,97909.16
2022-12-23T07:42:47.284Z,97917.00
2022-12-23T07:45:14.469Z,97900.97
2022-12-23T07:47:41.821Z,97962.69
2022-12-23T07:50:09.211Z,97922.41
2022-12-23T07:52:36.228Z,97798.44
2022-12-23T07:55:03.212Z,97977.53
2022-12-23T07:57:30.015Z,97894.00
2022-12-23T07:59:57.262Z,97938.56
2022-12-23T08:02:25.238Z,97931.63
2022-12-23T08:04:52.203Z,97981.47
2022-12-23T08:07:19.088Z,97960.88
2022-12-23T08:09:45.832Z,97906.44
2022-12-23T08:12:12.618Z,97960.56
2022-12-23T08:14:39.476Z,97821.06
2022-12-23T08:17:06.391Z,97906.66
2022-12-23T08:19:33.292Z,97926.53
2022-12-23T08:22:00.268Z,97981.63
2022-12-23T08:24:27.109Z,97909.31
2022-12-23T08:26:53.829Z,97930.63
2022-12-23T08:29:20.974Z,97918.53
2022-12-23T08:31:47.732Z,97957.78
2022-12-23T08:34:14.548Z,97915.31
2022-12-23T08:36:41.313Z,97961.97
2022-12-23T08:39:10.836Z,97984.91
2022-12-23T08:41:41.043Z,97907.31
2022-12-23T08:44:08.275Z,97815.91
2022-12-23T08:46:35.555Z,97966.66
2022-12-23T08:49:02.923Z,97871.19
2022-12-23T08:51:29.857Z,97927.53
2022-12-23T08:54:00.891Z,97939.59
2022-12-23T08:56:33.930Z,97916.84
2022-12-23T08:59:01.199Z,97943.19
2022-12-23T09:01:31.145Z,97911.13
2022-12-23T09:03:58.534Z,97975.44
2022-12-23T09:06:30.450Z,97912.72
2022-12-23T09:08:58.803Z,97896.09
2022-12-23T09:11:29.003Z,98002.78
2022-12-23T09:13:56.922Z,98011.13
2022-12-23T09:16:23.954Z,97988.47
2022-12-23T09:18:50.816Z,97903.72
2022-12-23T09:21:20.400Z,98008.41
2022-12-23T09:23:48.115Z,97959.53
2022-12-23T09:26:35.196Z,97962.75
2022-12-23T09:29:02.028Z,97929.44
2022-12-23T09:31:36.246Z,97961.22
2022-12-23T09:34:04.363Z,98009.78
2022-12-23T09:36:31.267Z,97936.88
2022-12-23T09:38:58.772Z,98009.69
2022-12-23T09:41:44.095Z,98003.00
2022-12-23T09:44:43.203Z,98003.09
2022-12-23T09:47:15.916Z,98029.41
2022-12-23T09:49:54.106Z,97947.13
2022-12-23T09:52:25.741Z,97986.66
2022-12-23T09:54:55.495Z,97970.03
2022-12-23T09:57:36.427Z,97930.91
2022-12-23T10:00:23.871Z,98007.03
2022-12-23T10:03:16.292Z,98015.19
2022-12-23T10:06:02.211Z,98017.56
2022-12-23T10:08:39.455Z,97974.53
2022-12-23T10:11:06.289Z,98014.66
2022-12-23T10:13:39.862Z,98014.56
2022-12-23T10:16:35.722Z,97997.13
2022-12-23T10:19:41.915Z,98007.97
2022-12-23T10:22:15.845Z,98018.59
2022-12-23T10:24:47.293Z,98015.84
2022-12-23T10:27:16.876Z,98026.84
2022-12-23T10:29:43.816Z,98014.66
2022-12-23T10:32:25.840Z,98020.97
2022-12-23T10:35:09.928Z,98002.75
2022-12-23T10:37:57.442Z,98018.41
2022-12-23T10:40:46.450Z,98027.75
2022-12-23T10:43:22.330Z,98013.66
2022-12-23T10:46:03.705Z,97991.66
2022-12-23T10:49:01.045Z,98023.44
2022-12-23T10:51:36.655Z,98023.84
2022-12-23T10:54:11.490Z,98011.88
2022-12-23T10:56:38.858Z,98015.41
2022-12-23T10:59:06.816Z,98041.25
2022-12-23T11:01:34.539Z,97996.00
2022-12-23T11:04:17.347Z,97883.66
2022-12-23T11:06:55.848Z,97976.84
2022-12-23T11:09:46.721Z,98037.09
2022-12-23T11:12:14.888Z,97995.69
2022-12-23T11:14:52.541Z,98032.75
2022-12-23T11:17:24.091Z,98046.97
2022-12-23T11:20:18.865Z,98041.53
2022-12-23T11:22:53.123Z,98038.22
2022-12-23T11:25:33.539Z,98033.09
2022-12-23T11:28:12.582Z,98035.47
2022-12-23T11:30:55.450Z,98010.06
2022-12-23T11:33:35.268Z,98016.13
2022-12-23T11:36:13.802Z,98046.66
2022-12-23T11:39:01.674Z,98055.63
2022-12-23T11:41:37.426Z,98054.53
2022-12-23T11:44:22.714Z,98059.19
2022-12-23T11:46:50.541Z,98060.25
2022-12-23T11:49:20.265Z,98057.31
2022-12-23T11:52:05.595Z,98072.53
2022-12-23T11:54:33.782Z,98045.72
2022-12-23T11:57:03.766Z,97987.91
2022-12-23T11:59:43.753Z,98087.38
2022-12-23T12:02:19.954Z,98052.97
2022-12-23T12:04:56.621Z,98077.16
2022-12-23T12:07:24.040Z,98029.63
2022-12-23T12:09:51.453Z,98051.88
2022-12-23T12:12:21.149Z,98051.63
2022-12-23T12:14:54.435Z,98075.56
2022-12-23T12:17:27.710Z,98074.94
2022-12-23T12:19:54.534Z,98079.69
2022-12-23T12:22:32.486Z,98082.53
2022-12-23T12:25:04.884Z,98016.69
2022-12-23T12:27:39.904Z,98088.25
2022-12-23T12:30:14.441Z,98069.56
2022-12-23T12:33:01.081Z,98040.84
2022-12-23T12:35:53.618Z,98086.63
2022-12-23T12:38:36.139Z,98064.41
2022-12-23T12:41:15.240Z,98039.44
2022-12-23T12:44:26.926Z,98106.50
2022-12-23T12:47:28.105Z,98003.09
2022-12-23T12:50:03.030Z,98070.66
2022-12-23T12:52:37.104Z,98055.31
2022-12-23T12:55:29.495Z,98082.38
2022-12-23T12:57:56.637Z,98093.84
2022-12-23T13:00:24.969Z,98109.31
2022-12-23T13:03:16.122Z,98118.25
2022-12-23T13:06:08.829Z,98121.38
2022-12-23T13:09:10.281Z,98039.91
2022-12-23T13:11:46.132Z,98128.41
2022-12-23T13:14:18.640Z,98135.94
2022-12-23T13:17:23.811Z,98133.47
2022-12-23T13:20:09.058Z,98133.72
2022-12-23T13:22:38.463Z,98065.13
2022-12-23T13:25:07.969Z,98137.78
2022-12-23T13:27:38.163Z,98124.50
2022-12-23T13:30:17.819Z,98034.50
2022-12-23T13:33:05.303Z,98145.38
2022-12-23T13:36:04.752Z,97988.56
2022-12-23T13:38:35.094Z,98147.94
2022-12-23T13:41:16.589Z,98145.06
2022-12-23T13:43:47.620Z,98139.31
2022-12-23T13:46:38.505Z,98140.78
2022-12-23T13:49:36.458Z,98111.09
2022-12-23T13:52:12.983Z,98146.28
2022-12-23T13:55:13.961Z,98144.31
2022-12-23T13:58:05.503Z,98141.31
2022-12-23T14:00:34.507Z,98122.53
2022-12-23T14:03:01.418Z,98133.16
2022-12-23T14:05:38.978Z,98145.16
2022-12-23T14:08:26.081Z,98028.78
2022-12-23T14:11:00.015Z,98119.06
2022-12-23T14:13:30.623Z,98142.06
2022-12-23T14:16:16.367Z,98169.75
2022-12-23T14:19:05.168Z,98142.41
2022-12-23T14:21:53.459Z,98160.78
2022-12-23T14:24:49.885Z,98165.09
2022-12-23T14:27:36.570Z,98147.44
2022-12-23T14:30:13.311Z,98162.63
2022-12-23T14:32:50.646Z,98167.53
2022-12-23T14:35:35.426Z,98113.03
2022-12-23T14:38:16.049Z,98160.88
2022-12-23T14:40:42.820Z,98156.81
2022-12-23T14:43:33.530Z,98153.69
2022-12-23T14:46:06.186Z,98135.63
2022-12-23T14:48:36.096Z,98155.09
2022-12-23T14:51:09.718Z,98159.31
2022-12-23T14:53:59.450Z,98138.09
2022-12-23T14:56:43.103Z,98157.56
2022-12-23T14:59:23.809Z,98157.00
2022-12-23T15:02:02.256Z,98125.59
2022-12-23T15:04:54.188Z,98166.84
2022-12-23T15:07:33.246Z,98161.44
2022-12-23T15:10:07.204Z,98142.69
2022-12-23T15:12:40.067Z,98186.78
2022-12-23T15:15:22.371Z,98146.56
2022-12-23T15:17:49.410Z,98146.44
2022-12-23T15:20:20.724Z,98174.22
2022-12-23T15:22:48.434Z,98164.53
2022-12-23T15:25:28.902Z,98120.78
2022-12-23T15:28:01.791Z,98144.03
2022-12-23T15:30:48.514Z,98119.16
2022-12-23T15:34:00.708Z,98082.06
2022-12-23T15:36:10.504Z,98140.50
2022-12-23T15:38:39.039Z,98182.28
2022-12-23T15:41:15.377Z,98149.94
2022-12-23T15:43:43.491Z,98136.03
2022-12-23T15:46:28.739Z,98159.34
2022-12-23T15:48:56.701Z,98128.34
2022-12-23T15:54:31.685Z,98019.28
2022-12-23T15:57:01.673Z,98130.41
2022-12-23T15:59:35.052Z,98174.22
2022-12-23T16:02:40.920Z,98132.66
2022-12-23T16:05:05.130Z,98161.34
2022-12-23T16:07:38.158Z,98184.84
2022-12-23T16:10:15.044Z,98185.03
2022-12-23T16:12:42.743Z,98175.09
2022-12-23T16:15:38.812Z,98138.44
2022-12-23T16:18:14.927Z,98182.78
2022-12-23T16:20:45.620Z,98161.09
2022-12-23T16:23:13.489Z,98171.44
2022-12-23T16:25:50.175Z,98088.34
2022-12-23T16:28:29.871Z,98173.59
2022-12-23T16:30:58.411Z,98165.50
2022-12-23T16:33:38.707Z,98178.25
2022-12-23T16:36:16.881Z,98079.72
2022-12-23T16:38:43.830Z,98188.50
2022-12-23T16:41:10.694Z,98142.19
2022-12-23T16:43:37.733Z,98115.13
2022-12-23T16:46:05.743Z,98120.50
2022-12-23T16:48:40.597Z,98162.75
2022-12-23T16:51:13.068Z,98129.41
2022-12-23T16:53:39.879Z,98182.44
2022-12-23T16:56:14.357Z,98181.53
2022-12-23T16:58:41.536Z,98134.16
2022-12-23T17:01:16.667Z,98186.44
2022-12-23T17:03:43.743Z,98151.84
2022-12-23T17:06:14.681Z,98167.97
2022-12-23T17:08:42.426Z,98146.28
2022-12-23T17:11:19.613Z,98198.34
2022-12-23T17:13:46.769Z,98110.84
2022-12-23T17:16:15.794Z,98154.16
2022-12-23T17:18:42.633Z,98117.13
2022-12-23T17:21:19.985Z,98132.06
2022-12-23T17:23:47.321Z,98115.69
2022-12-23T17:26:14.168Z,98137.69
2022-12-23T17:28:40.980Z,98174.19
2022-12-23T17:31:14.186Z,98120.50
2022-12-23T17:33:41.833Z,98107.59
2022-12-23T17:36:11.102Z,98121.56
2022-12-23T17:38:38.103Z,98130.19
2022-12-23T17:41:05.042Z,98079.31
2022-12-23T17:43:31.834Z,98087.16
2022-12-23T17:45:58.698Z,98177.19
2022-12-23T17:48:31.467Z,98145.00
2022-12-23T17:50:58.909Z,98053.84
2022-12-23T17:53:25.812Z,98093.63
2022-12-23T17:55:52.443Z,98165.34
2022-12-23T17:58:19.832Z,98107.69
2022-12-23T18:00:46.745Z,98061.97
2022-12-23T18:03:23.200Z,97990.19
2022-12-23T18:05:57.279Z,98026.16
2022-12-23T18:08:27.996Z,98012.84
2022-12-23T18:10:54.926Z,98063.13
2022-12-23T18:13:21.857Z,98112.88
2022-12-23T18:15:49.771Z,98080.56
2022-12-23T18:18:28.593Z,98108.69
2022-12-23T18:21:00.484Z,98071.00
2022-12-23T18:23:32.899Z,98086.34
2022-12-23T18:26:00.390Z,98087.09
2022-12-23T18:28:27.282Z,98098.19
2022-12-23T18:30:57.684Z,98083.63
2022-12-23T18:33:28.722Z,98060.28
2022-12-23T18:35:56.253Z,98108.44
2022-12-23T18:38:23.155Z,98072.69
2022-12-23T18:40:53.890Z,98093.38
2022-12-23T18:43:23.399Z,98096.59
2022-12-23T18:45:53.553Z,98119.53
2022-12-23T18:48:21.733Z,98047.06
2022-12-23T18:50:49.076Z,98129.94
2022-12-23T18:53:25.297Z,98126.88
2022-12-23T18:55:53.845Z,98100.31
2022-12-23T18:58:21.460Z,98139.53
2022-12-23T19:00:49.924Z,98140.34
2022-12-23T19:03:27.443Z,98145.66
2022-12-23T19:05:56.039Z,98149.28
2022-12-23T19:08:27.200Z,98134.38
2022-12-23T19:10:55.862Z,98101.31
2022-12-23T19:13:23.103Z,98102.06
2022-12-23T19:15:50.875Z,98126.94
2022-12-23T19:18:20.848Z,98144.31
2022-12-23T19:20:49.022Z,98127.03
2022-12-23T19:23:16.529Z,98050.03
2022-12-23T19:25:52.595Z,98122.00
2022-12-23T19:28:22.186Z,98105.84
2022-12-23T19:30:49.991Z,98127.13
2022-12-23T19:33:17.059Z,98072.34
2022-12-23T19:35:44.570Z,98126.84
2022-12-23T19:38:12.292Z,98107.59
2022-12-23T19:40:40.202Z,98146.72
2022-12-23T19:43:07.451Z,98115.06
2022-12-23T19:45:34.186Z,98136.47
2022-12-23T19:48:00.853Z,98107.09
2022-12-23T19:50:27.909Z,98145.63
2022-12-23T19:52:56.208Z,98076.81
2022-12-23T19:55:24.022Z,98110.63
2022-12-23T19:57:52.166Z,98113.69
2022-12-23T20:00:19.335Z,98155.22
2022-12-23T20:02:46.222Z,98098.78
2022-12-23T20:05:13.077Z,98112.59
2022-12-23T20:07:39.881Z,98091.41
2022-12-23T20:10:07.467Z,98073.13
2022-12-23T20:12:34.320Z,98102.09
2022-12-23T20:15:01.248Z,98080.63
2022-12-23T20:17:27.984Z,98102.56
2022-12-23T20:19:54.752Z,98067.09
2022-12-23T20:22:21.755Z,98022.75
2022-12-23T20:24:48.607Z,98128.69
2022-12-23T20:27:16.276Z,98043.81
2022-12-23T20:29:43.861Z,98125.53
2022-12-23T20:32:10.623Z,98149.94
2022-12-23T20:34:39.985Z,98076.16
2022-12-23T20:37:07.389Z,98108.66
2022-12-23T20:39:34.599Z,98082.09
2022-12-23T20:42:01.364Z,98166.00
2022-12-23T20:44:36.967Z,98106.69
2022-12-23T20:47:07.194Z,98114.75
2022-12-23T20:49:34.214Z,98149.13
2022-12-23T20:52:01.311Z,98106.31
2022-12-23T20:54:33.253Z,98104.72
2022-12-23T20:57:02.547Z,98056.84
2022-12-23T20:59:29.352Z,98093.00
2022-12-23T21:01:59.129Z,98106.91
2022-12-23T21:04:26.640Z,98100.72
2022-12-23T21:06:53.473Z,98115.78
2022-12-23T21:09:20.446Z,98052.94
2022-12-23T21:11:48.358Z,98082.72
2022-12-23T21:14:15.803Z,98046.28
2022-12-23T21:16:43.205Z,98023.44
2022-12-23T21:19:15.777Z,98086.28
2022-12-23T21:21:42.620Z,98068.97
2022-12-23T21:24:10.872Z,98097.09
2022-12-23T21:26:38.058Z,98071.72
2022-12-23T21:29:07.381Z,98087.09
2022-12-23T21:31:36.623Z,98094.03
2022-12-23T21:34:04.023Z,98068.72
2022-12-23T21:36:36.155Z,98114.56
2022-12-23T21:39:04.224Z,98077.97
2022-12-23T21:41:34.681Z,98031.53
2022-12-23T21:44:01.453Z,98113.72
2022-12-23T21:46:29.288Z,98105.38
2022-12-23T21:48:57.602Z,98010.97
2022-12-23T21:51:28.552Z,98094.41
2022-12-23T21:53:58.935Z,98030.94
2022-12-23T21:56:30.933Z,98049.38
2022-12-23T21:58:59.789Z,98050.50
2022-12-23T22:01:27.629Z,98081.03
2022-12-23T22:03:55.686Z,98092.75
2022-12-23T22:06:26.425Z,98110.97
2022-12-23T22:08:53.950Z,98101.38
2022-12-23T22:11:24.370Z,97992.91
2022-12-23T22:13:52.118Z,98115.78
2022-12-23T22:16:22.676Z,98104.53
2022-12-23T22:18:50.778Z,98104.63
2022-12-23T22:21:20.521Z,98029.38
2022-12-23T22:23:48.568Z,98104.78
2022-12-23T22:26:24.881Z,98108.00
2022-12-23T22:28:55.269Z,98071.59
2022-12-23T22:31:34.138Z,98098.75
2022-12-23T22:34:01.362Z,98047.47
2022-12-23T22:36:28.466Z,98056.06
2022-12-23T22:38:57.813Z,98092.69
2022-12-23T22:41:27.955Z,98091.69
2022-12-23T22:43:55.803Z,98080.44
2022-12-23T22:46:24.495Z,98031.22
2022-12-23T22:48:52.483Z,98044.53
2022-12-23T22:51:24.115Z,98063.88
2022-12-23T22:53:50.972Z,98044.31
2022-12-23T22:56:19.394Z,98079.59
2022-12-23T22:58:46.287Z,98039.03
2022-12-23T23:01:34.661Z,98049.34
2022-12-23T23:04:03.391Z,98082.47
2022-12-23T23:06:37.656Z,98089.91
2022-12-23T23:09:07.033Z,98086.34
2022-12-23T23:11:33.920Z,98082.97
2022-12-23T23:14:00.920Z,98017.16
2022-12-23T23:16:27.831Z,98077.16
2022-12-23T23:18:55.169Z,97935.59
2022-12-23T23:21:22.436Z,98036.41
2022-12-23T23:23:49.787Z,98039.09
2022-12-23T23:26:17.788Z,98090.50
2022-12-23T23:28:44.625Z,98073.56
2022-12-23T23:33:58.299Z,98013.28
2022-12-23T23:36:25.313Z,98074.47
2022-12-23T23:38:52.171Z,98024.34
2022-12-23T23:41:22.800Z,98044.88
2022-12-23T23:43:50.198Z,98050.25
2022-12-23T23:46:17.011Z,98066.66
2022-12-23T23:48:43.771Z,98048.16
2022-12-23T23:51:10.537Z,98071.00
2022-12-23T23:53:37.197Z,98074.78
2022-12-23T23:56:08.349Z,98097.38
2022-12-23T23:58:36.493Z,98079.88
